Elliot Chaparral Reserve, California Weather observations

Data are for 10 minute period ending at time listed.
 Day   Time   Solar   Ave.   Ave.  Ave.  Vector  Max.   Baro.   Total    
  of    of     Rad.   Air    Rel.  Wind   Wind   Wind  Press.  Precip.   
Year   Day            Temp.  Hum.  Speed  Dir.   Gust                    
2016   (PST)  Kw/m2    F      %     mph   deg.    mph    mb.     in.     
-------------------------------------------------------------------------
 151   11:40   0.33   63.9    71    8.6   312    13.9   986.4    0.00 
 151   11:50   0.38   63.7    72    9.8   304    13.7   986.3    0.00 
 151   12:00   0.47   64.6    70    9.1   316    13.0   986.3    0.00 
 151   12:10   0.49   64.6    70    8.7   301    13.0   986.2    0.00 
 151   12:20   0.46   65.0    70    9.5   294    14.6   986.1    0.00 
 151   12:30   0.55   65.4    68   10.4   322    14.0   986.1    0.00 
 151   12:40   0.54   65.6    68    9.8   298    16.9   986.0    0.00 
 151   12:50   0.64   65.6    68   10.3   284    15.3   985.8    0.00 
 151   13:00   0.59   66.1    67   12.5   282    17.1   985.7    0.00 
 151   13:10   0.54   65.4    69   12.0   287    17.5   985.7    0.00 
 151   13:20   0.57   66.1    67   10.5   284    17.8   985.7    0.00 
 151   13:30   0.78   66.7    66   12.8   274    17.3   985.6    0.00 
 151   13:40   0.75   67.2    65   13.1   288    18.3   985.5    0.00 
 151   13:50   0.77   67.0    65   13.8   283    18.7   985.3    0.00 
 151   14:00   0.84   67.2    64   13.4   289    18.2   985.2    0.00 
 151   14:10   0.81   66.8    65   13.4   284    18.0   985.1    0.00 
 151   14:20   0.78   67.3    64   13.1   280    19.2   985.0    0.00 
 151   14:30   0.76   68.1    62   12.5   288    17.3   985.0    0.00 
 151   14:40   0.73   68.0    62   11.3   298    15.6   984.9    0.00 
 151   14:50   0.70   68.5    61   12.2   292    18.6   984.8    0.00 
 151   15:00   0.68   67.7    63   12.6   290    19.6   984.7    0.00 
 151   15:10   0.65   68.8    60   12.1   300    16.0   984.7    0.00 
 151   15:20   0.62   68.4    61   11.3   302    17.0   984.6    0.00 
 151   15:30   0.59   67.6    63   11.7   296    16.5   984.6    0.00 
 151   15:40   0.55   68.3    61   11.2   290    16.9   984.6    0.00 
 151   15:50   0.52   68.1    62   13.3   289    19.4   984.5    0.00 
 151   16:00   0.49   67.6    63   12.2   307    17.7   984.4    0.00 
 151   16:10   0.46   67.5    63   12.1   286    18.9   984.4    0.00 
 151   16:20   0.43   66.8    65   10.8   302    14.5   984.5    0.00 
 151   16:30   0.38   66.2    66   12.3   296    16.9   984.3    0.00 
 151   16:40   0.32   66.1    66   12.4   297    17.7   984.3    0.00 
 151   16:50   0.30   65.6    67   12.3   297    15.3   984.4    0.00 
 151   17:00   0.24   65.4    68   11.7   299    17.2   984.4    0.00 
 151   17:10   0.24   64.8    69   11.7   301    15.3   984.4    0.00 
 151   17:20   0.13   63.9    71   12.4   307    17.2   984.3    0.00 
 151   17:30   0.14   63.2    72   10.5   314    14.1   984.3    0.00 
 151   17:40   0.12   64.0    70   10.8   301    15.2   984.3    0.00 
 151   17:50   0.12   63.4    71   11.2   307    14.5   984.2    0.00 
 151   18:00   0.09   63.2    72    9.4   306    12.9   984.2    0.00 
 151   18:10   0.07   62.7    73   10.1   307    13.1   984.2    0.00 
 151   18:20   0.05   62.2    74    9.1   315    13.3   984.1    0.00 
 151   18:30   0.03   61.4    76    9.5   301    12.6   984.0    0.00 
 151   18:40   0.01   60.7    78    8.2   302    12.6   984.0    0.00 
 151   18:50   0.00   60.2    79    7.4   304    10.7   983.9    0.00 
 151   19:00   0.00   59.7    80    7.8   312     9.7   983.8    0.00 
 151   19:10   0.00   59.4    81    8.2   315    10.7   983.8    0.00 
 151   19:20   0.00   59.1    82    8.7   302    11.8   983.8    0.00 
 151   19:30   0.00   58.7    83    9.0   310    11.5   983.8    0.00 
 151   19:40   0.00   58.4    84    7.9   300    10.5   983.7    0.00 
 151   19:50   0.00   58.2    85    8.3   310    10.8   983.8    0.00 
 151   20:00   0.00   58.1    85    7.1   308    10.7   983.8    0.00 
 151   20:10   0.00   58.0    86    7.5   310     9.6   983.9    0.00 
 151   20:20   0.00   58.0    86    8.4   309    11.3   983.9    0.00 
 151   20:30   0.00   58.2    86    6.5   315    10.5   984.0    0.00 
 151   20:40   0.00   58.2    86    6.7   310     9.2   984.1    0.00 
 151   20:50   0.00   58.2    86    6.7   310     9.3   984.1    0.00 
 151   21:00   0.00   58.3    86    5.5   307     7.3   984.1    0.00 
 151   21:10   0.00   58.3    86    5.5   306     7.7   984.1    0.00 
 151   21:20   0.00   58.3    86    5.4   312     6.7   984.1    0.00 
 151   21:30   0.00   58.2    86    5.1   301     6.8   984.1    0.00 
 151   21:40   0.00   58.3    86    3.8   299     6.1   984.1    0.00 
 151   21:50   0.00   58.3    86    4.2   293     6.1   984.0    0.00 
 151   22:00   0.00   58.4    85    4.4   294     6.2   984.0    0.00 
 151   22:10   0.00   58.3    85    4.8   286     6.0   984.0    0.00 
 151   22:20   0.00   58.3    85    4.5   284     6.5   983.9    0.00 
 151   22:30   0.00   58.4    85    2.9   276     4.5   983.8    0.00 
 151   22:40   0.00   58.5    85    3.2   278     4.8   983.7    0.00 
 151   22:50   0.00   58.4    85    2.2   318     3.4   983.6    0.00 
 151   23:00   0.00   58.4    85    2.4    10     3.6   983.6    0.00 
 151   23:10   0.00   58.5    85    1.7     9     3.1   983.6    0.00 
 151   23:20   0.00   58.6    84    1.2    19     2.3   983.5    0.00 
 151   23:30   0.00   58.5    84    1.6    33     2.4   983.4    0.00 
 151   23:40   0.00   58.6    84    1.3     7     2.9   983.4    0.00 
 151   23:50   0.00   58.5    84    2.4     4     3.7   983.3    0.00 
 152    0:00   0.00   58.5    84    2.3    32     3.5   983.2    0.00 
 152    0:10   0.00   58.5    84    2.1    39     3.4   983.0    0.00 
 152    0:20   0.00   58.5    84    1.5    81     2.5   982.9    0.00 
 152    0:30   0.00   58.5    85    1.0   230     2.3   982.9    0.00 
 152    0:40   0.00   58.5    85    1.8   342     4.6   982.9    0.00 
 152    0:50   0.00   58.3    85    3.0    41     4.1   982.8    0.00 
 152    1:00   0.00   58.3    85    1.8    36     2.9   982.7    0.00 
 152    1:10   0.00   58.3    85    2.2   302     4.4   982.7    0.00 
 152    1:20   0.00   58.1    86    2.2   242     3.8   982.7    0.00 
 152    1:30   0.00   58.1    86    1.6   208     3.4   982.6    0.00 
 152    1:40   0.00   58.3    86    2.6   204     3.6   982.6    0.00 
 152    1:50   0.00   58.3    86    2.1   197     3.7   982.5    0.00 
 152    2:00   0.00   58.4    85    1.1   196     2.1   982.7    0.00 
 152    2:10   0.00   58.3    86    1.4   173     2.0   982.7    0.00 
 152    2:20   0.00   58.3    86    0.8   131     3.0   982.6    0.00 
 152    2:30   0.00   58.3    86    1.9   287     4.0   982.6    0.00 
 152    2:40   0.00   58.0    86    3.3   301     4.5   982.6    0.00 
 152    2:50   0.00   57.8    87    2.4   294     4.9   982.5    0.00 
 152    3:00   0.00   57.7    87    3.4   286     5.3   982.5    0.00 
 152    3:10   0.00   57.7    88    2.1   262     3.2   982.5    0.00 
 152    3:20   0.00   57.7    88    1.5   239     3.0   982.5    0.00 
 152    3:30   0.00   57.7    88    2.0   217     3.3   982.4    0.00 
 152    3:40   0.00   57.7    88    2.0   241     3.2   982.3    0.00 
 152    3:50   0.00   57.6    88    1.8   196     4.6   982.3    0.00 
 152    4:00   0.00   57.5    88    3.0   173     4.8   982.3    0.00 
 152    4:10   0.00   57.6    88    0.6    41     1.8   982.4    0.00 
 152    4:20   0.00   57.7    88    1.6   202     5.8   982.6    0.00 
 152    4:30   0.00   57.7    87    1.2    80     2.3   982.5    0.00 
 152    4:40   0.00   57.6    87    3.3   132     5.8   982.6    0.00 
 152    4:50   0.00   57.3    88    4.8   142     6.1   982.6    0.00 
 152    5:00   0.00   57.3    88    4.5   157     5.6   982.5    0.00 
 152    5:10   0.00   57.3    88    2.8   157     4.7   982.6    0.00 
 152    5:20   0.00   57.3    88    4.0   146     5.3   982.6    0.00 
 152    5:30   0.01   57.2    88    4.4   144     5.6   982.7    0.00 
 152    5:40   0.01   57.1    88    5.4   140     6.8   982.7    0.00 
 152    5:50   0.02   57.1    88    4.8   136     6.9   982.8    0.00 
 152    6:00   0.03   57.4    88    2.8   138     4.6   982.9    0.00 
 152    6:10   0.03   57.7    87    1.3   134     2.7   982.9    0.00 
 152    6:20   0.03   57.7    87    1.0   191     3.1   983.0    0.00 
 152    6:30   0.04   57.9    86    1.4   206     2.7   983.1    0.00 
 152    6:40   0.04   58.1    86    1.0   116     2.4   983.2    0.00 
 152    6:50   0.06   58.3    86    1.5   123     2.7   983.2    0.00 
 152    7:00   0.05   58.4    85    1.3    97     3.0   983.3    0.00 
 152    7:10   0.06   58.7    85    1.0   183     3.0   983.4    0.00 
 152    7:20   0.08   58.4    86    1.0   115     2.5   983.5    0.00 
 152    7:30   0.08   58.9    85    2.0   129     5.2   983.5    0.00 
 152    7:40   0.08   58.9    84    4.3   122     7.2   983.5    0.00 
 152    7:50   0.08   58.8    84    2.0   142     4.6   983.5    0.00 
 152    8:00   0.08   59.2    83    2.0   207     4.3   983.5    0.00 
 152    8:10   0.08   59.4    82    2.4   205     4.3   983.5    0.00 
 152    8:20   0.09   59.7    82    1.9   204     4.5   983.5    0.00 
 152    8:30   0.10   59.9    81    3.9   206     6.4   983.4    0.00 
 152    8:40   0.12   60.0    81    3.8   217     6.9   983.3    0.00 
 152    8:50   0.13   60.2    80    3.6   209     6.1   983.3    0.00 
 152    9:00   0.15   60.8    78    2.5   165     4.2   983.3    0.00 
 152    9:10   0.15   60.6    79    1.9    97     4.7   983.3    0.00 
 152    9:20   0.16   61.3    78    1.8    49     3.4   983.4    0.00 
 152    9:30   0.16   61.5    77    1.3    25     3.0   983.5    0.00 
 152    9:40   0.16   62.0    76    3.4   211     5.9   983.6    0.00 
 152    9:50   0.17   61.9    76    2.5   244     5.3   983.6    0.00 
 152   10:00   0.20   62.2    75    3.7   195     6.2   983.6    0.00 
 152   10:10   0.20   62.6    74    1.4   202     3.6   983.6    0.00 
 152   10:20   0.20   63.3    73    3.2   212     6.7   983.7    0.00 
 152   10:30   0.22   63.0    74    3.3   176     5.3   983.8    0.00 
 152   10:40   0.23   63.4    73    3.8   214     7.5   983.8    0.00 
 152   10:50   0.27   64.1    72    3.0   226     6.7   983.7    0.00 
 152   11:00   0.30   63.6    74    5.9   266    10.4   983.6    0.00 
 152   11:10   0.32   63.7    74    6.5   260     9.3   983.5    0.00 
 152   11:20   0.32   64.0    73    5.4   251     9.5   983.5    0.00 
 152   11:30   0.33   64.3    73    4.6   268     7.7   983.5    0.00 

Return to Elliot Chaparral Reserve graphs page.


Western Regional Climate Center,wrcc@dri.edu